Time;durP1;ratioP1;P1;durP2;ratioP2;P2;SDS_P1;SDS_P2;PMS_P1;PMS_P2;Temp;Humidity;BMP_temperature;BMP_pressure;BME280_temperature;BME280_humidity;BME280_pressure;Samples;Min_cycle;Max_cycle;Signal;HPM_P1;HPM_P2
2022/08/23 00:01:26;;;;;;;2.90;2.60;;;;;;;19.62;63.19;98530.53;4976667;28;103043;-71
2022/08/23 00:04:03;;;;;;;2.63;2.42;;;;;;;19.97;61.52;98524.69;4975906;28;103284;-71
2022/08/23 00:06:36;;;;;;;3.08;2.40;;;;;;;20.11;60.86;98526.66;4950195;28;103219;-71
2022/08/23 00:09:07;;;;;;;2.60;2.40;;;;;;;20.05;61.34;98516.63;4976438;28;102804;-72
2022/08/23 00:11:39;;;;;;;3.38;2.80;;;;;;;19.97;62.66;98519.34;4976912;28;103915;-72
2022/08/23 00:14:16;;;;;;;3.20;2.20;;;;;;;20.13;60.66;98515.72;4977683;28;103350;-72
2022/08/23 00:16:45;;;;;;;3.15;2.85;;;;;;;20.07;61.13;98514.59;4978466;28;102966;-71
2022/08/23 00:19:16;;;;;;;2.47;2.22;;;;;;;20.10;60.71;98519.59;4972311;28;102591;-72
2022/08/23 00:21:47;;;;;;;4.03;3.40;;;;;;;19.97;61.68;98523.88;4954813;28;102717;-71
2022/08/23 00:24:18;;;;;;;4.80;3.63;;;;;;;19.39;64.01;98521.53;4977810;28;103257;-71
2022/08/23 00:26:58;;;;;;;3.60;3.10;;;;;;;19.29;64.57;98535.06;4977067;28;103304;-61
2022/08/23 00:29:29;;;;;;;4.80;3.60;;;;;;;19.13;65.37;98528.91;4977018;28;102952;-60
2022/08/23 00:31:58;;;;;;;5.18;4.00;;;;;;;19.07;64.82;98519.69;4955660;28;102991;-61
2022/08/23 00:34:27;;;;;;;3.63;2.90;;;;;;;19.33;63.98;98519.50;4953901;28;104239;-61
2022/08/23 00:36:59;;;;;;;3.72;3.10;;;;;;;19.35;63.61;98517.47;4973850;28;103048;-60
2022/08/23 00:39:28;;;;;;;5.35;3.35;;;;;;;18.99;64.30;98517.03;4984821;28;102639;-60
2022/08/23 00:42:00;;;;;;;3.93;3.10;;;;;;;19.05;64.15;98516.38;4983190;28;104340;-61
2022/08/23 00:47:42;;;;;;;4.57;3.17;;;;;;;18.46;65.07;98520.16;4978312;28;103199;-61
2022/08/23 00:50:21;;;;;;;4.47;3.27;;;;;;;18.82;64.38;98505.50;4954952;28;102917;-60
2022/08/23 00:53:02;;;;;;;5.00;2.93;;;;;;;19.28;63.02;98516.50;4984171;28;103258;-61
2022/08/23 00:55:33;;;;;;;5.50;3.47;;;;;;;19.26;63.04;98513.13;4977288;28;104079;-61
2022/08/23 00:58:03;;;;;;;7.43;4.60;;;;;;;18.74;65.36;98521.56;4971917;28;104480;-60
2022/08/23 01:00:32;;;;;;;9.23;5.27;;;;;;;18.12;67.44;98522.06;4973094;28;103008;-60
2022/08/23 01:03:03;;;;;;;8.23;4.75;;;;;;;18.38;67.14;98514.78;4966298;28;102790;-60
2022/08/23 01:05:42;;;;;;;3.92;3.30;;;;;;;19.00;64.99;98516.84;4978304;28;103243;-61
2022/08/23 01:08:12;;;;;;;2.97;2.40;;;;;;;19.36;62.86;98516.50;4976998;28;103227;-61
2022/08/23 01:10:46;;;;;;;3.40;2.33;;;;;;;19.51;62.45;98510.28;4959512;28;102655;-61
2022/08/23 01:13:18;;;;;;;4.63;3.33;;;;;;;19.51;62.36;98507.59;4980247;28;103024;-60
2022/08/23 01:15:51;;;;;;;5.88;4.47;;;;;;;18.55;66.67;98516.53;4976906;28;103596;-61
2022/08/23 01:18:24;;;;;;;4.00;3.60;;;;;;;18.77;66.40;98512.34;4961531;28;103161;-60
2022/08/23 01:20:58;;;;;;;5.55;4.25;;;;;;;18.54;66.83;98528.22;4975887;28;102725;-60
2022/08/23 01:23:36;;;;;;;7.40;4.80;;;;;;;17.96;68.60;98531.69;4983740;28;102699;-60
2022/08/23 01:26:08;;;;;;;5.53;3.97;;;;;;;18.04;68.06;98519.38;4955762;28;103670;-60
2022/08/23 01:28:40;;;;;;;5.88;3.80;;;;;;;17.59;69.49;98523.19;4958963;28;104141;-60
2022/08/23 01:31:15;;;;;;;3.80;3.30;;;;;;;18.32;67.34;98528.81;4976195;28;102578;-60
2022/08/23 01:33:50;;;;;;;4.20;3.80;;;;;;;18.44;65.88;98527.50;4980108;28;102768;-61
2022/08/23 01:36:20;;;;;;;5.00;3.50;;;;;;;18.57;65.76;98527.88;4952982;28;103744;-60
2022/08/23 01:38:54;;;;;;;3.37;3.07;;;;;;;18.80;64.38;98523.56;4983118;28;103220;-58
2022/08/23 01:41:25;;;;;;;4.45;3.33;;;;;;;18.84;64.58;98519.53;4959086;28;102849;-59
2022/08/23 01:43:54;;;;;;;3.15;2.78;;;;;;;18.91;64.33;98523.22;4976014;28;102603;-59
2022/08/23 01:46:27;;;;;;;4.38;2.72;;;;;;;18.98;64.31;98526.91;4960301;28;103448;-59
2022/08/23 01:48:57;;;;;;;4.47;3.20;;;;;;;18.64;65.08;98517.38;4984717;28;103320;-59
2022/08/23 01:51:31;;;;;;;3.88;3.15;;;;;;;18.68;65.16;98534.75;4964003;28;102713;-59
2022/08/23 01:54:01;;;;;;;4.28;3.50;;;;;;;18.65;65.47;98525.22;4975072;28;102854;-59
2022/08/23 01:56:31;;;;;;;3.70;3.23;;;;;;;18.48;66.34;98523.50;4976882;28;103407;-59
2022/08/23 01:59:09;;;;;;;3.22;2.80;;;;;;;18.78;64.56;98541.59;4952414;28;103220;-59
2022/08/23 02:01:44;;;;;;;4.38;2.70;;;;;;;18.90;64.32;98526.06;4968947;28;103117;-59
2022/08/23 02:04:13;;;;;;;3.42;2.60;;;;;;;18.95;63.53;98531.75;4971461;28;104097;-59
2022/08/23 02:06:42;;;;;;;4.78;3.25;;;;;;;18.66;65.29;98540.28;4953798;28;103318;-59
2022/08/23 02:09:18;;;;;;;4.70;3.53;;;;;;;18.42;66.63;98540.19;4959489;28;103239;-59
2022/08/23 02:11:49;;;;;;;3.42;3.13;;;;;;;18.63;65.49;98532.56;4977776;28;103212;-58
2022/08/23 02:14:21;;;;;;;2.47;2.17;;;;;;;18.83;63.89;98527.75;4955608;28;104212;-58
2022/08/23 02:16:57;;;;;;;2.95;2.50;;;;;;;18.92;63.83;98530.25;4981081;28;103241;-59
2022/08/23 02:19:35;;;;;;;4.38;3.30;;;;;;;18.75;64.65;98531.22;4974864;28;103245;-59
2022/08/23 02:22:08;;;;;;;2.80;2.50;;;;;;;18.80;64.04;98541.47;4970850;28;102588;-59
2022/08/23 02:24:40;;;;;;;2.40;2.20;;;;;;;18.88;63.26;98534.28;4954784;28;104313;-59
2022/08/23 02:27:08;;;;;;;3.17;2.90;;;;;;;18.81;63.81;98533.25;4954491;28;106084;-59
2022/08/23 02:29:40;;;;;;;3.70;3.38;;;;;;;18.76;64.64;98530.25;4956026;28;103191;-59
2022/08/23 02:32:16;;;;;;;3.22;2.83;;;;;;;18.46;65.99;98537.03;4956525;28;102677;-59
2022/08/23 02:34:46;;;;;;;4.65;3.78;;;;;;;18.25;67.03;98543.81;4977022;28;104074;-59
2022/08/23 02:37:34;;;;;;;4.63;3.60;;;;;;;18.36;66.69;98543.50;4956976;28;103451;-59
2022/08/23 02:40:07;;;;;;;4.03;3.30;;;;;;;18.39;66.10;98541.34;4957820;28;103470;-58
2022/08/23 02:42:36;;;;;;;4.85;4.00;;;;;;;18.18;67.35;98538.31;4951493;28;102851;-59
2022/08/23 02:45:08;;;;;;;4.50;3.65;;;;;;;18.15;68.17;98537.78;4955971;28;103234;-59
2022/08/23 02:47:45;;;;;;;4.67;3.63;;;;;;;18.18;67.72;98534.78;4978672;28;104004;-59
2022/08/23 02:50:25;;;;;;;5.00;3.95;;;;;;;18.15;68.32;98532.44;4959077;28;103442;-59
2022/08/23 02:52:54;;;;;;;3.63;3.10;;;;;;;18.22;67.94;98544.13;4952976;28;102749;-58
2022/08/23 02:55:25;;;;;;;5.53;4.10;;;;;;;18.02;68.99;98548.09;4979284;28;102933;-59
2022/08/23 02:57:55;;;;;;;6.07;3.97;;;;;;;18.08;68.63;98547.47;4970728;28;103305;-58
2022/08/23 03:00:23;;;;;;;5.15;4.43;;;;;;;18.15;68.82;98553.81;4956672;28;103705;-59
2022/08/23 03:02:53;;;;;;;5.18;3.92;;;;;;;18.24;67.98;98552.84;4955435;28;102844;-59
2022/08/23 03:05:23;;;;;;;5.20;4.70;;;;;;;18.16;68.46;98550.16;4977383;28;103539;-59
2022/08/23 03:07:51;;;;;;;4.70;4.30;;;;;;;18.03;69.37;98563.13;4974217;28;103726;-59
2022/08/23 03:10:19;;;;;;;4.40;4.00;;;;;;;18.19;68.24;98552.50;4956879;28;104422;-60
2022/08/23 03:12:54;;;;;;;3.83;3.40;;;;;;;18.29;67.32;98553.19;4959428;28;102784;-58
2022/08/23 03:15:23;;;;;;;3.83;3.20;;;;;;;18.37;66.44;98548.72;4950994;28;104002;-60
2022/08/23 03:17:51;;;;;;;3.30;3.00;;;;;;;18.36;66.20;98547.03;4973068;28;103427;-59
2022/08/23 03:20:20;;;;;;;3.92;3.30;;;;;;;18.34;66.57;98551.72;4976611;28;105251;-59
2022/08/23 03:22:52;;;;;;;4.43;3.75;;;;;;;18.13;67.83;98555.81;4972902;28;102829;-58
2022/08/23 03:25:25;;;;;;;6.22;4.68;;;;;;;17.60;70.64;98551.56;4971683;28;102665;-59
2022/08/23 03:28:08;;;;;;;5.13;3.90;;;;;;;17.73;70.05;98553.81;4981193;28;104183;-58
2022/08/23 03:30:41;;;;;;;5.50;4.63;;;;;;;17.57;70.93;98554.53;4953650;28;103297;-60
2022/08/23 03:33:10;;;;;;;6.50;4.90;;;;;;;17.43;71.44;98563.13;4983408;28;102651;-58
2022/08/23 03:35:40;;;;;;;4.78;4.35;;;;;;;17.31;72.37;98559.88;4953200;28;102827;-70
2022/08/23 03:38:13;;;;;;;6.68;4.82;;;;;;;17.47;71.10;98561.81;4954109;28;105275;-70
2022/08/23 03:40:44;;;;;;;6.43;5.10;;;;;;;17.32;72.04;98561.53;4982629;28;103218;-70
2022/08/23 03:43:14;;;;;;;5.57;4.57;;;;;;;17.59;70.61;98567.75;4981317;28;102683;-70
2022/08/23 03:45:43;;;;;;;5.88;5.10;;;;;;;17.65;70.37;98565.28;4952766;28;102724;-70
2022/08/23 03:48:12;;;;;;;6.05;4.80;;;;;;;17.65;70.60;98569.78;4982742;28;103307;-70
2022/08/23 03:50:40;;;;;;;5.30;4.20;;;;;;;17.74;69.88;98567.00;4973640;28;103853;-70
2022/08/23 03:53:09;;;;;;;4.37;3.97;;;;;;;17.76;69.38;98578.38;4960195;28;102833;-70
2022/08/23 03:55:39;;;;;;;4.97;4.40;;;;;;;17.65;70.00;98577.81;4957619;28;103966;-70
2022/08/23 03:58:14;;;;;;;3.87;3.57;;;;;;;17.72;70.10;98584.19;4973434;28;103346;-70
2022/08/23 04:00:42;;;;;;;7.80;5.43;;;;;;;17.10;72.89;98587.88;4975832;28;103074;-70
2022/08/23 04:03:15;;;;;;;6.40;4.70;;;;;;;17.15;73.62;98591.75;4956076;28;102899;-70
2022/08/23 04:06:04;;;;;;;4.55;4.13;;;;;;;17.40;72.38;98582.94;4968253;28;102699;-71
2022/08/23 04:08:33;;;;;;;6.70;5.10;;;;;;;17.41;71.94;98591.78;4953733;28;104136;-70
2022/08/23 04:11:05;;;;;;;6.95;4.57;;;;;;;17.25;71.82;98595.19;4958023;28;103327;-70
2022/08/23 04:13:36;;;;;;;6.55;4.90;;;;;;;17.38;71.59;98592.09;4954518;28;102656;-70
2022/08/23 04:16:05;;;;;;;4.50;4.10;;;;;;;17.48;71.39;98595.53;4957607;28;102733;-70
2022/08/23 04:18:35;;;;;;;4.72;4.20;;;;;;;17.54;70.65;98584.25;4981280;28;103288;-70
2022/08/23 04:21:09;;;;;;;5.60;4.80;;;;;;;17.18;72.08;98596.78;4954327;28;103383;-70
2022/08/23 04:23:39;;;;;;;4.88;4.32;;;;;;;17.37;71.77;98595.78;4954998;28;103162;-70
2022/08/23 04:26:09;;;;;;;4.30;3.92;;;;;;;17.40;71.24;98595.47;4960099;28;102819;-70
2022/08/23 04:28:40;;;;;;;5.38;4.15;;;;;;;17.29;71.93;98593.06;4952545;28;104933;-71
2022/08/23 04:31:10;;;;;;;5.95;5.45;;;;;;;16.51;75.58;98607.97;4980151;28;103386;-70
2022/08/23 04:33:41;;;;;;;9.20;6.10;;;;;;;16.03;77.64;98612.72;4957879;28;102668;-70
2022/08/23 04:36:14;;;;;;;7.57;5.60;;;;;;;15.77;78.97;98622.38;4976201;28;103023;-70
2022/08/23 04:38:44;;;;;;;6.28;5.68;;;;;;;15.97;78.76;98618.66;4981935;28;104406;-70
2022/08/23 04:44:06;;;;;;;6.63;5.50;;;;;;;15.88;78.43;98620.38;4961999;28;102771;-70
2022/08/23 04:46:38;;;;;;;7.33;5.30;;;;;;;15.52;80.22;98624.66;4984501;28;102705;-70
2022/08/23 04:49:08;;;;;;;6.65;5.13;;;;;;;15.84;78.74;98623.44;4955955;28;104539;-70
2022/08/23 04:51:38;;;;;;;5.82;5.15;;;;;;;15.72;79.36;98624.63;4983140;28;102971;-70
2022/08/23 04:54:07;;;;;;;8.35;5.10;;;;;;;15.76;78.52;98632.16;4979806;28;102809;-70
2022/08/23 04:56:56;;;;;;;5.68;5.03;;;;;;;16.05;77.88;98638.25;4960735;28;104566;-70
2022/08/23 04:59:27;;;;;;;5.87;5.00;;;;;;;16.22;76.58;98636.63;4973582;28;103267;-70
2022/08/23 05:01:56;;;;;;;8.23;5.30;;;;;;;16.16;77.59;98639.88;4960108;28;103226;-70
2022/08/23 05:04:25;;;;;;;5.63;4.85;;;;;;;16.48;76.39;98640.25;4973506;28;103354;-70
2022/08/23 05:06:55;;;;;;;5.40;4.32;;;;;;;16.80;74.79;98639.81;4962023;28;102806;-70
2022/08/23 05:09:26;;;;;;;6.70;5.10;;;;;;;16.58;75.63;98635.75;4960723;28;103373;-70
2022/08/23 05:11:56;;;;;;;5.38;4.88;;;;;;;16.22;77.36;98640.13;4976718;28;103320;-70
2022/08/23 05:14:28;;;;;;;7.18;4.57;;;;;;;16.64;76.44;98645.84;4983256;28;102674;-70
2022/08/23 05:16:57;;;;;;;4.18;3.78;;;;;;;17.11;74.20;98637.63;4976987;28;102742;-70
2022/08/23 05:19:27;;;;;;;6.57;5.00;;;;;;;16.91;74.31;98647.59;4970085;28;103497;-70
2022/08/23 05:21:57;;;;;;;5.37;4.20;;;;;;;16.59;75.44;98645.41;4976031;28;103446;-70
2022/08/23 05:24:44;;;;;;;8.77;4.50;;;;;;;16.75;74.61;98653.63;4981220;28;104005;-70
2022/08/23 05:27:13;;;;;;;6.43;4.22;;;;;;;16.97;74.45;98649.66;4979671;28;102708;-70
2022/08/23 05:29:45;;;;;;;8.10;4.40;;;;;;;16.99;74.11;98649.50;4956568;28;103279;-70
2022/08/23 05:32:16;;;;;;;4.93;3.80;;;;;;;17.20;73.75;98644.72;4977024;28;103220;-70
2022/08/23 05:34:45;;;;;;;5.43;4.43;;;;;;;17.47;73.34;98644.59;4976588;28;102743;-70
2022/08/23 05:37:16;;;;;;;7.00;4.90;;;;;;;17.45;73.75;98656.41;4980515;28;103235;-70
2022/08/23 05:39:46;;;;;;;7.30;5.00;;;;;;;17.48;73.27;98651.63;4980966;28;103962;-59
2022/08/23 05:42:17;;;;;;;7.53;4.70;;;;;;;17.68;73.02;98647.81;4961071;28;103712;-59
2022/08/23 05:44:48;;;;;;;7.70;4.80;;;;;;;17.54;74.25;98648.38;4979835;28;102633;-59
2022/08/23 05:47:19;;;;;;;4.68;4.28;;;;;;;17.90;72.85;98647.28;4963356;28;104195;-59
2022/08/23 05:50:11;;;;;;;5.05;4.00;;;;;;;18.29;70.70;98650.31;4980919;28;103188;-59
2022/08/23 05:52:42;;;;;;;4.30;3.67;;;;;;;18.43;70.34;98655.03;4953480;28;103286;-59
2022/08/23 05:55:19;;;;;;;7.85;4.57;;;;;;;18.57;69.94;98650.94;4960673;28;102678;-59
2022/08/23 05:58:11;;;;;;;3.40;3.10;;;;;;;18.75;69.40;98653.50;4981716;28;102757;-59
2022/08/23 06:00:43;;;;;;;4.00;3.60;;;;;;;18.92;68.60;98657.88;4972957;28;103913;-59
2022/08/23 06:03:13;;;;;;;7.65;4.97;;;;;;;18.74;70.12;98662.53;4959434;28;103194;-59
2022/08/23 06:05:43;;;;;;;5.25;4.22;;;;;;;19.07;68.49;98666.94;4971927;28;102711;-59
2022/08/23 06:08:12;;;;;;;5.30;3.97;;;;;;;19.21;68.79;98676.16;4975332;28;103926;-59
2022/08/23 06:10:41;;;;;;;5.20;4.07;;;;;;;19.40;67.74;98670.53;4958039;28;103290;-59
2022/08/23 06:13:28;;;;;;;4.53;3.50;;;;;;;19.67;66.55;98680.91;4954206;28;103242;-59
2022/08/23 06:16:00;;;;;;;8.05;4.43;;;;;;;19.63;66.85;98676.88;4981730;28;102698;-59
2022/08/23 06:18:43;;;;;;;4.13;3.40;;;;;;;19.85;66.33;98676.19;4977600;28;103067;-59
2022/08/23 06:21:33;;;;;;;8.03;4.50;;;;;;;19.75;66.33;98664.00;4978991;28;103525;-60
2022/08/23 06:24:03;;;;;;;6.80;4.43;;;;;;;19.89;65.91;98679.38;4950384;28;103583;-60
2022/08/23 06:26:41;;;;;;;5.47;4.07;;;;;;;20.07;65.40;98680.03;4955320;28;102822;-59
2022/08/23 06:29:13;;;;;;;5.03;3.85;;;;;;;20.27;64.50;98688.56;4958657;28;104329;-60
2022/08/23 06:31:49;;;;;;;6.93;4.32;;;;;;;20.43;64.24;98680.47;4953856;28;103316;-60
2022/08/23 06:34:35;;;;;;;4.75;3.92;;;;;;;20.32;64.67;98678.16;4960184;28;103406;-60
2022/08/23 06:37:21;;;;;;;5.97;4.20;;;;;;;20.31;64.70;98677.31;4977116;28;102913;-60
2022/08/23 06:40:20;;;;;;;5.45;3.67;;;;;;;20.57;63.63;98675.22;4959291;28;102976;-60
2022/08/23 06:43:00;;;;;;;7.40;4.40;;;;;;;20.78;62.49;98682.63;4974088;28;103583;-60
2022/08/23 06:45:48;;;;;;;5.97;4.03;;;;;;;20.98;61.87;98675.81;4956694;28;103345;-60
2022/08/23 06:48:28;;;;;;;6.63;3.70;;;;;;;21.07;61.67;98673.91;4979212;28;102719;-60
2022/08/23 06:50:57;;;;;;;4.47;3.45;;;;;;;21.04;61.33;98680.50;4984900;28;102685;-60
2022/08/23 06:53:27;;;;;;;7.05;3.47;;;;;;;21.19;60.72;98678.72;4979923;28;103687;-60
2022/08/23 06:56:19;;;;;;;7.77;3.67;;;;;;;21.49;59.86;98685.06;4973600;28;103280;-60
2022/08/23 06:59:06;;;;;;;5.93;3.55;;;;;;;21.49;59.88;98679.69;4961539;28;102849;-60
2022/08/23 07:02:00;;;;;;;7.50;3.58;;;;;;;21.64;58.54;98687.81;4972081;28;104175;-60
2022/08/23 07:04:52;;;;;;;7.20;3.50;;;;;;;21.81;57.59;98679.41;4979654;28;103749;-60
2022/08/23 07:07:31;;;;;;;6.18;3.65;;;;;;;21.49;58.24;98684.22;4986308;28;103175;-60
2022/08/23 07:10:15;;;;;;;6.90;3.65;;;;;;;21.65;57.72;98689.47;4972985;28;102999;-60
2022/08/23 07:12:44;;;;;;;4.90;3.15;;;;;;;21.96;56.31;98687.53;4993165;28;102681;-61
2022/08/23 07:15:14;;;;;;;8.98;3.33;;;;;;;22.19;56.61;98691.00;4954869;28;103100;-60
2022/08/23 07:17:45;;;;;;;4.47;3.20;;;;;;;22.28;55.99;98691.75;4956929;28;103192;-69
2022/08/23 07:20:16;;;;;;;6.40;3.17;;;;;;;22.56;55.86;98683.84;4977970;28;102794;-70
2022/08/23 07:22:46;;;;;;;3.58;2.60;;;;;;;22.79;55.30;98690.81;4983074;28;102739;-70
2022/08/23 07:25:16;;;;;;;5.00;2.83;;;;;;;22.86;54.67;98691.75;4981295;28;103356;-70
2022/08/23 07:27:49;;;;;;;7.35;3.10;;;;;;;22.75;54.06;98694.06;4980059;28;103306;-71
2022/08/23 07:30:21;;;;;;;6.30;3.78;;;;;;;23.05;54.52;98695.69;4977299;28;102701;-70
2022/08/23 07:32:52;;;;;;;5.68;3.65;;;;;;;23.26;54.30;98698.41;4970851;28;102910;-72
2022/08/23 07:35:24;;;;;;;5.10;3.57;;;;;;;23.76;52.55;98702.03;4979815;28;103360;-72
2022/08/23 07:37:56;;;;;;;2.83;2.47;;;;;;;24.13;52.26;98697.19;4980937;28;103208;-73
2022/08/23 07:40:30;;;;;;;4.72;3.00;;;;;;;24.10;51.31;98700.28;4971942;28;102773;-72
2022/08/23 07:43:07;;;;;;;4.90;2.67;;;;;;;24.28;50.31;98698.94;4972934;28;102839;-72
2022/08/23 07:45:39;;;;;;;7.85;3.33;;;;;;;24.42;50.78;98704.22;4952233;28;102651;-72
2022/08/23 07:48:11;;;;;;;4.50;3.10;;;;;;;24.97;50.01;98705.16;4980851;28;103185;-72
2022/08/23 07:51:11;;;;;;;6.68;3.13;;;;;;;25.25;48.98;98705.88;4985211;28;102622;-71
2022/08/23 07:53:42;;;;;;;4.00;2.97;;;;;;;24.80;49.25;98701.97;4984072;28;102913;-72
2022/08/23 07:56:19;;;;;;;5.55;3.00;;;;;;;24.87;48.79;98702.81;4960553;28;105140;-72
2022/08/23 07:59:15;;;;;;;4.70;3.40;;;;;;;25.26;47.46;98705.66;4976966;28;103269;-71
2022/08/23 08:02:04;;;;;;;4.70;2.80;;;;;;;26.06;46.34;98707.44;4941973;28;102888;-72
2022/08/23 08:04:36;;;;;;;7.38;2.97;;;;;;;26.58;45.77;98701.16;4973641;28;102915;-72
2022/08/23 08:07:07;;;;;;;4.55;2.85;;;;;;;26.61;46.07;98702.63;4953127;28;103023;-72
2022/08/23 08:09:55;;;;;;;6.70;3.50;;;;;;;26.87;45.28;98702.53;4975924;28;103558;-72
2022/08/23 08:12:25;;;;;;;5.32;2.88;;;;;;;27.43;43.00;98706.25;4953307;28;102760;-72
2022/08/23 08:14:57;;;;;;;6.72;3.10;;;;;;;27.15;43.91;98702.19;4974150;28;104079;-72
2022/08/23 08:17:34;;;;;;;7.03;3.25;;;;;;;27.10;43.75;98710.16;4954508;28;103063;-72
2022/08/23 08:20:03;;;;;;;4.32;2.90;;;;;;;26.87;44.82;98700.66;4979446;28;103216;-72
2022/08/23 08:22:40;;;;;;;7.25;2.95;;;;;;;28.08;44.24;98704.97;4983213;28;103047;-72
2022/08/23 08:25:35;;;;;;;4.88;2.80;;;;;;;28.73;41.81;98711.66;4956284;28;102679;-71
2022/08/23 08:28:07;;;;;;;6.20;2.73;;;;;;;28.95;41.10;98703.03;4974380;28;103795;-72
2022/08/23 08:30:43;;;;;;;5.25;2.75;;;;;;;29.02;41.93;98701.06;4955648;28;103202;-72
2022/08/23 08:33:14;;;;;;;5.72;2.80;;;;;;;29.35;40.68;98706.09;4968251;28;102802;-72
2022/08/23 08:35:48;;;;;;;5.03;2.80;;;;;;;29.27;40.36;98704.53;4958107;28;102940;-72
2022/08/23 08:38:29;;;;;;;4.87;2.90;;;;;;;29.92;41.05;98708.19;4976886;28;103370;-64
2022/08/23 08:41:08;;;;;;;5.35;2.80;;;;;;;30.47;38.11;98707.88;4976093;28;103327;-72
2022/08/23 08:43:53;;;;;;;4.63;2.60;;;;;;;30.57;38.70;98716.31;4977178;28;103583;-71
2022/08/23 08:46:28;;;;;;;4.82;2.58;;;;;;;31.16;37.64;98706.97;4965223;28;104290;-72
2022/08/23 08:49:03;;;;;;;4.57;2.40;;;;;;;30.77;36.58;98708.53;4970281;28;103260;-72
2022/08/23 08:51:41;;;;;;;4.20;2.42;;;;;;;30.99;37.68;98704.97;4975958;28;103230;-72
2022/08/23 08:54:16;;;;;;;6.40;3.00;;;;;;;30.02;38.25;98708.44;4958316;28;102901;-71
2022/08/23 08:56:53;;;;;;;3.50;2.65;;;;;;;30.99;37.99;98706.91;4946675;28;103981;-71
2022/08/23 08:59:32;;;;;;;4.90;2.97;;;;;;;29.85;38.91;98721.06;4981316;28;103295;-72
2022/08/23 09:02:05;;;;;;;3.70;2.53;;;;;;;31.22;37.37;98712.25;4979512;28;103260;-71
2022/08/23 09:04:50;;;;;;;4.47;2.40;;;;;;;31.94;37.15;98712.53;4961468;28;103010;-65
2022/08/23 09:07:27;;;;;;;5.07;2.97;;;;;;;30.77;37.19;98716.72;4958128;28;103036;-65
2022/08/23 09:10:31;;;;;;;3.90;2.70;;;;;;;31.95;35.83;98716.88;4979694;28;103265;-65
2022/08/23 09:13:31;;;;;;;6.15;2.22;;;;;;;32.39;34.54;98710.56;4960302;28;105025;-65
2022/08/23 09:16:13;;;;;;;3.88;2.20;;;;;;;31.66;34.55;98712.56;4976502;28;103740;-65
2022/08/23 09:18:43;;;;;;;7.80;2.43;;;;;;;31.73;33.91;98715.97;4954505;28;103102;-65
2022/08/23 09:21:16;;;;;;;3.70;2.08;;;;;;;32.07;32.41;98709.47;4958484;28;103584;-65
2022/08/23 09:23:47;;;;;;;3.20;2.03;;;;;;;32.36;32.42;98708.31;4962747;28;105502;-65
2022/08/23 09:26:39;;;;;;;4.63;2.23;;;;;;;32.37;32.49;98712.69;4959027;28;102822;-65
2022/08/23 09:29:18;;;;;;;5.63;2.17;;;;;;;32.46;32.61;98707.63;4961238;28;103264;-65
2022/08/23 09:31:52;;;;;;;4.50;2.40;;;;;;;32.47;33.09;98704.66;4962114;28;103965;-65
2022/08/23 09:34:41;;;;;;;3.17;2.25;;;;;;;33.33;31.18;98705.81;4981612;28;103261;-65
2022/08/23 09:37:17;;;;;;;2.83;1.80;;;;;;;33.57;30.80;98712.69;4955127;28;103666;-65
2022/08/23 09:39:50;;;;;;;3.10;1.80;;;;;;;33.17;31.12;98706.72;4957623;28;104354;-65
2022/08/23 09:42:32;;;;;;;3.28;2.00;;;;;;;31.74;32.54;98706.72;4958260;28;103479;-65
2022/08/23 09:45:01;;;;;;;5.17;2.03;;;;;;;32.77;31.66;98706.19;4975056;28;103393;-65
2022/08/23 09:47:35;;;;;;;4.18;1.90;;;;;;;32.15;30.70;98709.06;4975197;28;102649;-65
2022/08/23 09:50:25;;;;;;;2.65;1.80;;;;;;;32.14;31.83;98707.44;4958677;28;102916;-65
2022/08/23 09:53:03;;;;;;;4.50;1.80;;;;;;;33.52;30.31;98709.00;4983219;28;103010;-65
2022/08/23 09:55:36;;;;;;;4.57;2.10;;;;;;;33.07;31.35;98701.13;4974186;28;105129;-65
2022/08/23 09:58:18;;;;;;;3.85;2.47;;;;;;;33.49;30.42;98704.88;4963710;28;102831;-65
2022/08/23 10:01:07;;;;;;;4.65;2.45;;;;;;;32.83;30.83;98703.25;4960520;28;102943;-65
2022/08/23 10:03:37;;;;;;;2.85;1.83;;;;;;;32.22;29.87;98712.47;4958662;28;103954;-65
2022/08/23 10:06:30;;;;;;;4.13;1.63;;;;;;;32.32;31.44;98698.94;4961671;28;103378;-66
2022/08/23 10:09:04;;;;;;;3.43;1.80;;;;;;;32.91;30.42;98702.81;4955480;28;102797;-65
2022/08/23 10:11:38;;;;;;;3.20;2.20;;;;;;;33.29;29.24;98699.22;4953670;28;103651;-66
2022/08/23 10:14:18;;;;;;;4.28;1.77;;;;;;;32.72;31.06;98700.66;4962568;28;103194;-65
2022/08/23 10:17:06;;;;;;;2.67;1.48;;;;;;;31.69;30.13;98687.50;4979473;28;103968;-66
2022/08/23 10:19:44;;;;;;;5.38;1.52;;;;;;;32.10;31.31;98703.53;4957240;28;102747;-65
2022/08/23 10:22:20;;;;;;;2.83;1.67;;;;;;;31.85;30.20;98692.97;4962638;28;102801;-66
2022/08/23 10:25:25;;;;;;;2.90;1.77;;;;;;;32.91;30.06;98691.03;4972714;28;103341;-65
2022/08/23 10:31:01;;;;;;;3.65;1.70;;;;;;;31.68;30.90;98680.38;4973169;28;102615;-66
2022/08/23 10:33:42;;;;;;;4.13;1.75;;;;;;;32.22;30.54;98682.41;4956510;28;104045;-66
2022/08/23 10:36:19;;;;;;;2.25;1.60;;;;;;;32.84;29.12;98680.31;4965945;28;104208;-65
2022/08/23 10:38:56;;;;;;;4.93;2.10;;;;;;;33.64;28.19;98674.94;4962381;28;103109;-65
2022/08/23 10:41:48;;;;;;;4.43;1.63;;;;;;;33.18;29.32;98670.88;4963176;28;103412;-65
2022/08/23 10:44:25;;;;;;;4.00;1.70;;;;;;;32.93;30.04;98675.22;4973783;28;102776;-65
2022/08/23 10:47:11;;;;;;;2.63;1.73;;;;;;;33.17;28.15;98680.19;4983075;28;103483;-65
2022/08/23 10:49:41;;;;;;;3.42;1.95;;;;;;;33.21;28.60;98677.75;4965107;28;105280;-66
2022/08/23 10:52:20;;;;;;;3.53;1.70;;;;;;;32.35;29.27;98675.75;4959717;28;102866;-65
2022/08/23 10:54:59;;;;;;;2.78;1.75;;;;;;;33.88;28.62;98663.66;4959624;28;102905;-65
2022/08/23 10:57:35;;;;;;;2.03;1.50;;;;;;;33.50;28.68;98668.22;4953594;28;105320;-65
2022/08/23 11:00:09;;;;;;;2.78;1.50;;;;;;;34.20;28.01;98667.22;4979961;28;105669;-65
2022/08/23 11:02:49;;;;;;;2.83;2.00;;;;;;;34.48;27.42;98655.88;4981483;28;103256;-66
2022/08/23 11:05:27;;;;;;;2.30;1.65;;;;;;;32.93;28.30;98661.53;4980083;28;103184;-65
2022/08/23 11:08:02;;;;;;;2.05;1.60;;;;;;;33.34;28.00;98663.69;4955100;28;103388;-66
2022/08/23 11:10:46;;;;;;;4.88;1.60;;;;;;;34.15;28.27;98653.47;4983477;28;103348;-66
2022/08/23 11:13:33;;;;;;;2.40;1.70;;;;;;;34.01;28.18;98649.50;4956166;28;102631;-66
2022/08/23 11:16:13;;;;;;;2.30;1.60;;;;;;;34.16;27.88;98649.66;4977223;28;102776;-66
2022/08/23 11:18:48;;;;;;;3.22;1.88;;;;;;;33.83;27.66;98652.66;4952204;28;103615;-66
2022/08/23 11:21:46;;;;;;;2.40;1.73;;;;;;;32.11;28.82;98642.34;4984420;28;103434;-66
2022/08/23 11:24:48;;;;;;;2.83;1.80;;;;;;;30.97;30.04;98646.28;4969032;28;103256;-66
2022/08/23 11:27:32;;;;;;;1.77;1.60;;;;;;;31.95;29.09;98640.41;4959037;28;102908;-65
2022/08/23 11:30:43;;;;;;;3.10;1.70;;;;;;;31.82;29.71;98643.47;4975330;28;103633;-66
2022/08/23 11:33:20;;;;;;;2.50;1.77;;;;;;;31.24;29.78;98641.06;4953706;28;103329;-66
2022/08/23 11:35:54;;;;;;;3.80;1.70;;;;;;;31.08;28.50;98637.22;4982588;28;102835;-66
2022/08/23 11:39:08;;;;;;;2.47;1.70;;;;;;;30.83;30.09;98639.41;4955787;28;104034;-65
2022/08/23 11:42:02;;;;;;;2.80;1.80;;;;;;;32.64;29.06;98633.56;4935734;28;104342;-66
2022/08/23 11:44:39;;;;;;;3.28;1.63;;;;;;;33.03;28.13;98629.66;4964929;28;103653;-66
2022/08/23 11:47:12;;;;;;;3.47;1.80;;;;;;;33.43;27.61;98633.91;4963789;28;102872;-66
2022/08/23 11:50:02;;;;;;;2.42;1.85;;;;;;;32.28;28.17;98643.16;4956364;28;102807;-65
2022/08/23 11:53:00;;;;;;;2.03;1.70;;;;;;;31.61;28.74;98638.78;4960110;28;104021;-66
2022/08/23 11:56:00;;;;;;;4.50;1.85;;;;;;;31.62;29.10;98632.22;4954603;28;103393;-66
2022/08/23 11:58:45;;;;;;;2.65;1.83;;;;;;;31.38;28.59;98631.50;4970632;28;102920;-66
2022/08/23 12:01:17;;;;;;;4.00;2.00;;;;;;;32.82;28.06;98622.28;4981535;28;103807;-66
2022/08/23 12:03:57;;;;;;;2.58;1.70;;;;;;;31.41;29.37;98631.81;4976876;28;103347;-66
2022/08/23 12:06:39;;;;;;;3.15;1.77;;;;;;;32.82;28.96;98629.66;4973352;28;103422;-66
2022/08/23 12:10:01;;;;;;;3.30;1.80;;;;;;;31.47;29.34;98621.84;4957153;28;102762;-66
2022/08/23 12:12:36;;;;;;;3.08;1.80;;;;;;;31.38;29.43;98621.41;4920505;28;102881;-66
2022/08/23 12:15:13;;;;;;;1.75;1.40;;;;;;;33.50;28.00;98618.09;4976132;28;103233;-66